Time;durP1;ratioP1;P1;durP2;ratioP2;P2;SDS_P1;SDS_P2;PMS_P1;PMS_P2;Temp;Humidity;BMP_temperature;BMP_pressure;BME280_temperature;BME280_humidity;BME280_pressure;Samples;Min_cycle;Max_cycle;Signal;HPM_P1;HPM_P2
2023/08/12 00:01:31;;;;;;;12.67;10.50;;;22.20;99.90;;;;;;5036614;28;20435;-73
2023/08/12 00:04:00;;;;;;;11.93;9.57;;;22.10;99.90;;;;;;5036270;28;20461;-73
2023/08/12 00:06:29;;;;;;;11.50;9.73;;;22.10;99.90;;;;;;5036329;28;20967;-73
2023/08/12 00:08:57;;;;;;;12.30;10.13;;;22.10;99.90;;;;;;5035269;28;20908;-73
2023/08/12 00:11:26;;;;;;;12.13;10.83;;;22.10;99.90;;;;;;5036352;28;20482;-73
2023/08/12 00:13:54;;;;;;;12.67;11.33;;;22.10;99.90;;;;;;5036074;28;20967;-73
2023/08/12 00:16:22;;;;;;;12.50;11.07;;;22.00;99.90;;;;;;5036790;28;20610;-72
2023/08/12 00:18:50;;;;;;;14.13;11.93;;;22.00;99.90;;;;;;5036773;28;20493;-73
2023/08/12 00:21:19;;;;;;;13.93;11.90;;;22.00;99.90;;;;;;5036546;28;20530;-73
2023/08/12 00:23:49;;;;;;;12.27;10.73;;;22.00;99.90;;;;;;5034976;28;21025;-72
2023/08/12 00:26:18;;;;;;;12.13;10.80;;;22.00;99.90;;;;;;5036037;28;20461;-73
2023/08/12 00:28:46;;;;;;;11.97;10.73;;;21.90;99.90;;;;;;5036504;28;20504;-73
2023/08/12 00:31:14;;;;;;;13.03;11.83;;;21.90;99.90;;;;;;5035806;28;20494;-73
2023/08/12 00:33:42;;;;;;;15.80;12.77;;;21.90;99.90;;;;;;5036121;28;20561;-73
2023/08/12 00:36:10;;;;;;;19.27;13.60;;;21.90;99.90;;;;;;5035893;28;20508;-70
2023/08/12 00:38:38;;;;;;;16.20;13.30;;;21.90;99.90;;;;;;5036037;28;20768;-70
2023/08/12 00:41:08;;;;;;;16.00;12.37;;;21.90;99.90;;;;;;5035014;28;20478;-72
2023/08/12 00:43:36;;;;;;;17.03;13.57;;;21.80;99.90;;;;;;5034435;28;20565;-73
2023/08/12 00:46:05;;;;;;;15.73;12.33;;;21.80;99.90;;;;;;5035752;28;20434;-73
2023/08/12 00:48:34;;;;;;;15.10;13.53;;;21.80;99.90;;;;;;5034702;28;20443;-73
2023/08/12 00:51:03;;;;;;;15.73;12.87;;;21.80;99.90;;;;;;5036031;28;20435;-72
2023/08/12 00:53:31;;;;;;;14.70;11.80;;;21.80;99.90;;;;;;5034249;28;20467;-70
2023/08/12 00:56:00;;;;;;;15.03;13.63;;;21.80;99.90;;;;;;5035979;28;20443;-70
2023/08/12 00:58:29;;;;;;;15.53;14.00;;;21.80;99.90;;;;;;5034119;28;20447;-70
2023/08/12 01:00:58;;;;;;;13.83;12.17;;;21.80;99.90;;;;;;5035440;28;20467;-72
2023/08/12 01:03:27;;;;;;;14.67;13.17;;;21.80;99.90;;;;;;5035992;28;20458;-73
2023/08/12 01:05:56;;;;;;;14.50;13.00;;;21.70;99.90;;;;;;5034087;28;20438;-70
2023/08/12 01:08:29;;;;;;;14.77;12.50;;;21.70;99.90;;;;;;5034024;28;20471;-70
2023/08/12 01:11:03;;;;;;;15.77;12.70;;;21.70;99.90;;;;;;5033884;28;20435;-70
2023/08/12 01:13:39;;;;;;;14.50;12.80;;;21.70;99.90;;;;;;5035713;28;20923;-70
2023/08/12 01:16:10;;;;;;;13.87;12.40;;;21.70;99.90;;;;;;5033981;28;20435;-70
2023/08/12 01:18:40;;;;;;;13.37;11.70;;;21.70;99.90;;;;;;5035704;28;20435;-70
2023/08/12 01:21:12;;;;;;;18.77;13.77;;;21.70;99.90;;;;;;5035211;28;20415;-72
2023/08/12 01:23:42;;;;;;;12.93;11.53;;;21.60;99.90;;;;;;5034899;28;20960;-70
2023/08/12 01:26:10;;;;;;;15.90;13.47;;;21.60;99.90;;;;;;5033792;28;20453;-70
2023/08/12 01:28:38;;;;;;;15.97;14.37;;;21.60;99.90;;;;;;5034845;28;20537;-70
2023/08/12 01:31:16;;;;;;;16.40;13.80;;;21.60;99.90;;;;;;5033622;28;20446;-70
2023/08/12 01:33:52;;;;;;;18.70;15.50;;;21.60;99.90;;;;;;5033519;28;20477;-70
2023/08/12 01:36:21;;;;;;;17.97;16.23;;;21.50;99.90;;;;;;5034796;28;20419;-70
2023/08/12 01:38:53;;;;;;;17.47;15.33;;;21.50;99.90;;;;;;5033372;28;20509;-70
2023/08/12 01:41:24;;;;;;;16.77;14.80;;;21.50;99.90;;;;;;5033443;28;20439;-72
2023/08/12 01:43:53;;;;;;;19.83;17.90;;;21.40;99.90;;;;;;5034724;28;20481;-73
2023/08/12 01:46:22;;;;;;;16.70;15.10;;;21.40;99.90;;;;;;5033351;28;20525;-70
2023/08/12 01:48:52;;;;;;;17.47;14.50;;;21.40;99.90;;;;;;5033345;28;20443;-70
2023/08/12 01:51:20;;;;;;;17.30;15.50;;;21.40;99.90;;;;;;5033443;28;20541;-70
2023/08/12 01:53:50;;;;;;;20.03;16.97;;;21.40;99.90;;;;;;5033238;28;20493;-70
2023/08/12 01:56:18;;;;;;;18.93;16.80;;;21.40;99.90;;;;;;5033227;28;20446;-70
2023/08/12 01:58:46;;;;;;;19.87;17.80;;;21.40;99.90;;;;;;5033072;28;20816;-70
2023/08/12 02:01:14;;;;;;;19.07;17.03;;;21.40;99.90;;;;;;5033170;28;20471;-72
2023/08/12 02:03:42;;;;;;;20.70;17.63;;;21.30;99.90;;;;;;5034545;28;20885;-73
2023/08/12 02:06:11;;;;;;;21.20;19.20;;;21.40;99.90;;;;;;5034296;28;20441;-73
2023/08/12 02:08:39;;;;;;;20.83;18.80;;;21.30;99.90;;;;;;5032965;28;20453;-73
2023/08/12 02:11:08;;;;;;;21.57;19.47;;;21.30;99.90;;;;;;5034098;28;20801;-71
2023/08/12 02:13:36;;;;;;;20.27;18.17;;;21.30;99.90;;;;;;5032996;28;20475;-70
2023/08/12 02:16:05;;;;;;;19.77;17.97;;;21.30;99.90;;;;;;5032734;28;20546;-70
2023/08/12 02:18:33;;;;;;;24.53;19.37;;;21.30;99.90;;;;;;5032803;28;20451;-70
2023/08/12 02:21:01;;;;;;;21.60;18.43;;;21.30;99.90;;;;;;5032668;28;20470;-70
2023/08/12 02:23:29;;;;;;;21.57;19.47;;;21.30;99.90;;;;;;5032928;28;20513;-70
2023/08/12 02:25:57;;;;;;;21.43;18.50;;;21.30;99.90;;;;;;5034135;28;20453;-70
2023/08/12 02:28:29;;;;;;;21.03;18.37;;;21.20;99.90;;;;;;5032544;28;20457;-70
2023/08/12 02:30:57;;;;;;;19.70;17.70;;;21.20;99.90;;;;;;5032508;28;20446;-70
2023/08/12 02:33:25;;;;;;;20.10;18.10;;;21.20;99.90;;;;;;5034185;28;20478;-70
2023/08/12 02:35:56;;;;;;;20.93;18.93;;;21.20;99.90;;;;;;5033801;28;20445;-70
2023/08/12 02:38:25;;;;;;;18.80;17.00;;;21.20;99.90;;;;;;5033778;28;20513;-70
2023/08/12 02:40:55;;;;;;;20.70;18.63;;;21.20;99.90;;;;;;5033880;28;20469;-70
2023/08/12 02:43:23;;;;;;;23.43;19.57;;;21.20;99.90;;;;;;5032213;28;20466;-71
2023/08/12 02:45:53;;;;;;;20.70;18.50;;;21.20;99.90;;;;;;5033368;28;20488;-71
2023/08/12 02:48:21;;;;;;;20.70;18.80;;;21.20;99.90;;;;;;5031924;28;20469;-71
2023/08/12 02:50:49;;;;;;;21.40;18.97;;;21.20;99.90;;;;;;5032197;28;20457;-71
2023/08/12 02:53:17;;;;;;;21.93;19.73;;;21.20;99.90;;;;;;5032085;28;20987;-71
2023/08/12 02:55:46;;;;;;;22.47;20.30;;;21.20;99.90;;;;;;5032224;28;20446;-71
2023/08/12 02:58:14;;;;;;;24.40;20.70;;;21.20;99.90;;;;;;5033556;28;20882;-71
2023/08/12 03:00:43;;;;;;;21.60;19.00;;;21.20;99.90;;;;;;5032206;28;20466;-71
2023/08/12 03:03:13;;;;;;;21.67;19.47;;;21.20;99.90;;;;;;5032068;28;20894;-70
2023/08/12 03:05:43;;;;;;;21.47;19.33;;;21.20;99.90;;;;;;5032317;28;20538;-71
2023/08/12 03:08:11;;;;;;;22.70;20.43;;;21.10;99.90;;;;;;5032045;28;20447;-70
2023/08/12 03:10:39;;;;;;;23.73;20.83;;;21.10;99.90;;;;;;5032127;28;21007;-71
2023/08/12 03:13:09;;;;;;;23.73;21.23;;;21.10;99.90;;;;;;5032132;28;20490;-70
2023/08/12 03:15:39;;;;;;;27.27;24.50;;;21.10;99.90;;;;;;5032038;28;20443;-71
2023/08/12 03:18:08;;;;;;;23.70;21.20;;;21.10;99.90;;;;;;5032126;28;20486;-70
2023/08/12 03:20:39;;;;;;;24.93;22.37;;;21.10;99.90;;;;;;5032093;28;20447;-71
2023/08/12 03:23:07;;;;;;;24.27;21.77;;;21.10;99.90;;;;;;5033262;28;20463;-71
2023/08/12 03:25:36;;;;;;;23.57;21.17;;;21.10;99.90;;;;;;5032183;28;20440;-71
2023/08/12 03:28:04;;;;;;;22.67;20.67;;;21.10;99.90;;;;;;5032080;28;20439;-70
2023/08/12 03:30:34;;;;;;;22.47;20.27;;;21.10;99.90;;;;;;5032334;28;20457;-70
2023/08/12 03:33:02;;;;;;;25.67;21.10;;;21.10;99.90;;;;;;5033153;28;20489;-70
2023/08/12 03:35:34;;;;;;;20.83;18.90;;;21.10;99.90;;;;;;5032354;28;20984;-71
2023/08/12 03:38:03;;;;;;;21.40;19.33;;;21.10;99.90;;;;;;5031962;28;20554;-71
2023/08/12 03:40:33;;;;;;;22.23;20.00;;;21.10;99.90;;;;;;5032220;28;20952;-70
2023/08/12 03:43:01;;;;;;;22.57;20.27;;;21.10;99.90;;;;;;5033376;28;20485;-71
2023/08/12 03:45:29;;;;;;;22.50;20.30;;;21.10;99.90;;;;;;5031918;28;20976;-71
2023/08/12 03:47:58;;;;;;;22.00;19.90;;;21.00;99.90;;;;;;5032013;28;20446;-71
2023/08/12 03:50:26;;;;;;;21.47;19.23;;;21.00;99.90;;;;;;5031797;28;20462;-70
2023/08/12 03:52:54;;;;;;;21.57;19.47;;;21.00;99.90;;;;;;5032963;28;20562;-70
2023/08/12 03:55:24;;;;;;;21.53;19.40;;;21.00;99.90;;;;;;5032021;28;20447;-70
2023/08/12 03:57:52;;;;;;;22.03;19.90;;;21.00;99.90;;;;;;5032710;28;20465;-70
2023/08/12 04:00:21;;;;;;;22.47;20.10;;;21.00;99.90;;;;;;5036987;28;20867;-71
2023/08/12 04:02:54;;;;;;;23.83;21.60;;;21.00;99.90;;;;;;5035849;28;20997;-71
2023/08/12 04:05:23;;;;;;;22.33;20.03;;;21.00;99.90;;;;;;5035377;28;20535;-70
2023/08/12 04:07:51;;;;;;;21.70;19.13;;;21.00;99.90;;;;;;5037267;28;20493;-70
2023/08/12 04:10:19;;;;;;;22.60;20.60;;;21.00;99.90;;;;;;5035374;28;20517;-70
2023/08/12 04:12:48;;;;;;;22.57;20.47;;;21.00;99.90;;;;;;5036453;28;20446;-70
2023/08/12 04:15:18;;;;;;;22.13;20.07;;;21.00;99.90;;;;;;5035290;28;20476;-70
2023/08/12 04:17:46;;;;;;;20.80;18.80;;;21.00;99.90;;;;;;5035363;28;20457;-70
2023/08/12 04:20:15;;;;;;;21.60;19.60;;;21.00;99.90;;;;;;5035363;28;20541;-70
2023/08/12 04:22:43;;;;;;;20.63;18.73;;;21.00;99.90;;;;;;5035373;28;20455;-70
2023/08/12 04:25:14;;;;;;;20.80;18.80;;;21.00;99.90;;;;;;5035362;28;20445;-70
2023/08/12 04:27:42;;;;;;;18.80;17.10;;;21.00;99.90;;;;;;5035240;28;20530;-70
2023/08/12 04:30:12;;;;;;;19.40;17.40;;;21.00;99.90;;;;;;5035289;28;20451;-70
2023/08/12 04:32:40;;;;;;;19.30;17.60;;;21.00;99.90;;;;;;5035517;28;20451;-70
2023/08/12 04:35:10;;;;;;;19.63;17.67;;;21.00;99.90;;;;;;5035667;28;20471;-70
2023/08/12 04:37:39;;;;;;;19.80;18.00;;;21.00;99.90;;;;;;5035083;28;20451;-70
2023/08/12 04:40:11;;;;;;;18.43;16.73;;;21.00;99.90;;;;;;5035309;28;20443;-69
2023/08/12 04:42:40;;;;;;;19.90;18.10;;;21.00;99.90;;;;;;5035644;28;20444;-70
2023/08/12 04:45:11;;;;;;;19.00;17.20;;;21.00;99.90;;;;;;5035513;28;20497;-69
2023/08/12 04:47:39;;;;;;;19.60;17.90;;;20.90;99.90;;;;;;5035963;28;20501;-69
2023/08/12 04:50:08;;;;;;;18.27;16.67;;;20.90;99.90;;;;;;5035174;28;20443;-69
2023/08/12 04:52:36;;;;;;;19.73;17.93;;;20.90;99.90;;;;;;5035221;28;20451;-69
2023/08/12 04:55:05;;;;;;;19.07;17.57;;;20.90;99.90;;;;;;5035229;28;20844;-69
2023/08/12 04:57:33;;;;;;;20.67;18.67;;;20.90;99.90;;;;;;5036454;28;20530;-69
2023/08/12 05:00:02;;;;;;;17.33;15.83;;;20.90;99.90;;;;;;5035614;28;20478;-69
2023/08/12 05:02:32;;;;;;;20.90;15.90;;;20.90;99.90;;;;;;5036043;28;20455;-69
2023/08/12 05:05:00;;;;;;;17.40;15.80;;;20.90;99.90;;;;;;5034828;28;20451;-69
2023/08/12 05:07:31;;;;;;;17.33;15.63;;;20.90;99.90;;;;;;5035390;28;20443;-69
2023/08/12 05:09:59;;;;;;;16.67;15.17;;;20.80;99.90;;;;;;5034233;28;20443;-69
2023/08/12 05:12:27;;;;;;;18.03;16.13;;;20.80;99.90;;;;;;5034501;28;20455;-69
2023/08/12 05:14:55;;;;;;;16.50;15.00;;;20.80;99.90;;;;;;5035892;28;20490;-69
2023/08/12 05:17:24;;;;;;;19.03;17.23;;;20.80;99.90;;;;;;5034754;28;20454;-69
2023/08/12 05:19:53;;;;;;;20.33;18.37;;;20.80;99.90;;;;;;5034928;28;20447;-69
2023/08/12 05:22:22;;;;;;;22.40;20.13;;;20.80;99.90;;;;;;5034799;28;20443;-69
2023/08/12 05:24:51;;;;;;;20.03;18.00;;;20.80;99.90;;;;;;5034559;28;20851;-69
2023/08/12 05:27:19;;;;;;;21.73;19.63;;;20.80;99.90;;;;;;5034021;28;20467;-69
2023/08/12 05:29:47;;;;;;;20.77;18.87;;;20.80;99.90;;;;;;5035783;28;20471;-69
2023/08/12 05:32:15;;;;;;;21.63;19.80;;;20.80;99.90;;;;;;5035579;28;20804;-69
2023/08/12 05:34:43;;;;;;;22.80;20.70;;;20.80;99.90;;;;;;5035144;28;21054;-68
2023/08/12 05:37:13;;;;;;;22.67;20.70;;;20.70;99.90;;;;;;5035491;28;20504;-68
2023/08/12 05:39:41;;;;;;;22.43;20.43;;;20.80;99.90;;;;;;5035471;28;20928;-68
2023/08/12 05:42:09;;;;;;;22.60;20.70;;;20.80;99.90;;;;;;5035498;28;20442;-68
2023/08/12 05:44:38;;;;;;;21.43;19.53;;;20.80;99.90;;;;;;5034659;28;20461;-68
2023/08/12 05:47:06;;;;;;;22.60;20.50;;;20.80;99.90;;;;;;5035375;28;20431;-68
2023/08/12 05:49:34;;;;;;;21.17;19.17;;;20.80;99.90;;;;;;5033414;28;20940;-68
2023/08/12 05:52:02;;;;;;;21.57;19.70;;;20.80;99.90;;;;;;5034673;28;20848;-68
2023/08/12 05:54:32;;;;;;;22.80;20.70;;;20.80;99.90;;;;;;5034725;28;20847;-68
2023/08/12 05:57:00;;;;;;;22.20;20.27;;;20.80;99.90;;;;;;5034806;28;20439;-68
2023/08/12 05:59:28;;;;;;;24.20;21.90;;;20.80;99.90;;;;;;5033676;28;20855;-68
2023/08/12 06:01:57;;;;;;;22.70;20.63;;;20.80;99.90;;;;;;5034529;28;20518;-69
2023/08/12 06:04:25;;;;;;;22.43;20.47;;;20.80;99.90;;;;;;5034863;28;20478;-68
2023/08/12 06:06:53;;;;;;;24.83;22.63;;;20.80;99.90;;;;;;5035223;28;20982;-68
2023/08/12 06:09:22;;;;;;;24.80;22.50;;;20.80;99.90;;;;;;5034813;28;20950;-68
2023/08/12 06:11:52;;;;;;;23.20;20.90;;;20.80;99.90;;;;;;5034502;28;20776;-68
2023/08/12 06:14:20;;;;;;;22.57;20.50;;;20.80;99.90;;;;;;5033033;28;20485;-68
2023/08/12 06:16:49;;;;;;;22.60;20.60;;;20.80;99.90;;;;;;5033302;28;20447;-68
2023/08/12 06:19:17;;;;;;;23.03;20.70;;;20.80;99.90;;;;;;5033282;28;20471;-68
2023/08/12 06:21:45;;;;;;;20.50;18.90;;;20.90;99.90;;;;;;5033694;28;20434;-68
2023/08/12 06:24:13;;;;;;;19.33;17.70;;;20.90;99.90;;;;;;5034272;28;20463;-68
2023/08/12 06:26:41;;;;;;;18.97;17.27;;;20.90;99.90;;;;;;5034709;28;20457;-68
2023/08/12 06:29:11;;;;;;;19.80;18.10;;;20.90;99.90;;;;;;5034471;28;20439;-68
2023/08/12 06:31:39;;;;;;;19.30;17.60;;;20.90;99.90;;;;;;5034662;28;20797;-68
2023/08/12 06:34:07;;;;;;;16.83;15.33;;;20.90;99.90;;;;;;5032860;28;20467;-68
2023/08/12 06:36:35;;;;;;;17.23;15.53;;;20.90;99.90;;;;;;5034823;28;20434;-68
2023/08/12 06:39:04;;;;;;;17.17;15.67;;;20.90;99.90;;;;;;5034267;28;20581;-68
2023/08/12 06:41:32;;;;;;;16.90;15.50;;;20.90;99.90;;;;;;5034370;28;20435;-68
2023/08/12 06:44:01;;;;;;;19.10;17.30;;;21.00;99.90;;;;;;5033911;28;20545;-68
2023/08/12 06:46:30;;;;;;;19.43;17.63;;;21.00;99.90;;;;;;5034048;28;20489;-68
2023/08/12 06:48:59;;;;;;;17.63;16.13;;;21.00;99.90;;;;;;5033554;28;20961;-68
2023/08/12 06:51:27;;;;;;;18.57;17.00;;;21.00;99.90;;;;;;5035420;28;20797;-68
2023/08/12 06:53:55;;;;;;;19.10;17.20;;;21.00;99.90;;;;;;5035081;28;20848;-68
2023/08/12 06:56:24;;;;;;;18.33;16.63;;;21.00;99.90;;;;;;5035410;28;20573;-68
2023/08/12 06:58:52;;;;;;;18.83;17.00;;;21.00;99.90;;;;;;5035522;28;20441;-68
2023/08/12 07:01:20;;;;;;;19.53;17.83;;;21.00;99.90;;;;;;5035594;28;20928;-67
2023/08/12 07:03:49;;;;;;;23.80;20.67;;;21.00;99.90;;;;;;5035742;28;21038;-68
2023/08/12 07:06:18;;;;;;;22.57;20.57;;;21.00;99.90;;;;;;5035342;28;20499;-68
2023/08/12 07:08:46;;;;;;;21.93;19.93;;;21.00;99.90;;;;;;5033969;28;20451;-68
2023/08/12 07:11:14;;;;;;;24.20;21.80;;;21.00;99.90;;;;;;5033197;28;20469;-69
2023/08/12 07:13:42;;;;;;;27.30;24.50;;;21.10;99.90;;;;;;5033578;28;20875;-69
2023/08/12 07:16:10;;;;;;;21.70;19.77;;;21.00;99.90;;;;;;5033665;28;20463;-68
2023/08/12 07:18:40;;;;;;;22.90;20.73;;;21.10;99.90;;;;;;5033785;28;20489;-69
2023/08/12 07:21:09;;;;;;;25.50;23.10;;;21.10;99.90;;;;;;5032579;28;20447;-68
2023/08/12 07:23:38;;;;;;;22.20;20.30;;;21.10;99.90;;;;;;5033815;28;20459;-68
2023/08/12 07:26:10;;;;;;;23.77;21.67;;;21.10;99.90;;;;;;5034308;28;20939;-68
2023/08/12 07:28:39;;;;;;;23.93;21.67;;;21.20;99.90;;;;;;5033758;28;20450;-68
2023/08/12 07:31:07;;;;;;;22.93;20.93;;;21.20;99.90;;;;;;5034677;28;20470;-68
2023/08/12 07:33:35;;;;;;;24.00;21.70;;;21.20;99.90;;;;;;5036303;28;20454;-68
2023/08/12 07:36:04;;;;;;;25.57;23.27;;;21.30;99.90;;;;;;5037960;28;20836;-69
2023/08/12 07:38:34;;;;;;;23.27;21.17;;;21.30;99.90;;;;;;5037743;28;20982;-69
2023/08/12 07:41:02;;;;;;;27.27;24.50;;;21.30;99.90;;;;;;5036400;28;20944;-69
2023/08/12 07:43:30;;;;;;;21.77;19.67;;;21.40;99.90;;;;;;5037755;28;20466;-68
2023/08/12 07:45:59;;;;;;;22.70;20.60;;;21.40;99.90;;;;;;5037507;28;20489;-69
2023/08/12 07:48:38;;;;;;;19.97;18.27;;;21.40;99.90;;;;;;5037469;28;20461;-68
2023/08/12 07:51:06;;;;;;;26.23;23.80;;;21.40;99.90;;;;;;5037481;28;20449;-68
2023/08/12 07:53:36;;;;;;;22.17;20.27;;;21.40;99.90;;;;;;5036864;28;20463;-68
2023/08/12 07:56:04;;;;;;;21.87;20.07;;;21.40;99.90;;;;;;5037293;28;20469;-68
2023/08/12 07:58:33;;;;;;;21.33;19.30;;;21.50;99.90;;;;;;5037551;28;20529;-68
2023/08/12 08:01:01;;;;;;;21.17;19.17;;;21.40;99.90;;;;;;5037022;28;20442;-68
2023/08/12 08:03:29;;;;;;;18.50;17.03;;;21.50;99.90;;;;;;5037032;28;20457;-69
2023/08/12 08:05:57;;;;;;;19.60;17.77;;;21.50;99.90;;;;;;5037444;28;20435;-68
2023/08/12 08:08:26;;;;;;;18.53;16.83;;;21.60;99.90;;;;;;5036069;28;20454;-68
2023/08/12 08:10:55;;;;;;;17.50;16.07;;;21.50;99.90;;;;;;5037148;28;20481;-69
2023/08/12 08:13:23;;;;;;;16.57;15.07;;;21.50;99.90;;;;;;5037292;28;20458;-68
2023/08/12 08:15:51;;;;;;;15.87;14.47;;;21.50;99.90;;;;;;5037469;28;20975;-69
2023/08/12 08:18:20;;;;;;;16.80;15.40;;;21.50;99.90;;;;;;5037315;28;20435;-68
2023/08/12 08:20:48;;;;;;;15.57;14.07;;;21.50;99.90;;;;;;5036853;28;20521;-68
2023/08/12 08:23:16;;;;;;;15.30;14.00;;;21.50;99.90;;;;;;5036835;28;20458;-68
2023/08/12 08:25:45;;;;;;;15.40;13.77;;;21.50;99.90;;;;;;5036863;28;20501;-67
2023/08/12 08:28:14;;;;;;;15.10;12.73;;;21.50;99.90;;;;;;5037221;28;20527;-69
2023/08/12 08:30:43;;;;;;;17.07;15.27;;;21.50;99.90;;;;;;5036926;28;20497;-69
2023/08/12 08:33:11;;;;;;;12.60;11.50;;;21.50;99.90;;;;;;5036838;28;20454;-69
2023/08/12 08:35:39;;;;;;;13.00;11.83;;;21.50;99.90;;;;;;5036663;28;20473;-68
2023/08/12 08:38:07;;;;;;;15.63;14.00;;;21.50;99.90;;;;;;5037121;28;20431;-68
2023/08/12 08:40:35;;;;;;;14.63;13.43;;;21.50;99.90;;;;;;5036717;28;20505;-68
2023/08/12 08:43:06;;;;;;;15.03;13.47;;;21.50;99.90;;;;;;5037081;28;20542;-69
2023/08/12 08:45:36;;;;;;;15.67;14.23;;;21.60;99.90;;;;;;5036025;28;20469;-69
2023/08/12 08:48:07;;;;;;;17.97;16.37;;;21.60;99.90;;;;;;5036936;28;20862;-68
2023/08/12 08:50:37;;;;;;;19.43;17.23;;;21.60;99.90;;;;;;5036539;28;20419;-68
2023/08/12 08:53:07;;;;;;;16.97;15.47;;;21.60;99.90;;;;;;5034984;28;20524;-69
2023/08/12 08:55:35;;;;;;;24.10;21.67;;;21.60;99.90;;;;;;5036563;28;20493;-68
2023/08/12 08:58:04;;;;;;;23.13;21.03;;;21.60;99.90;;;;;;5036367;28;20489;-69
2023/08/12 09:00:33;;;;;;;24.40;22.10;;;21.60;99.90;;;;;;5036201;28;20454;-68
2023/08/12 09:03:05;;;;;;;24.90;22.47;;;21.60;99.90;;;;;;5036552;28;20990;-68
2023/08/12 09:05:36;;;;;;;26.20;23.83;;;21.60;99.90;;;;;;5036287;28;20419;-69
2023/08/12 09:08:10;;;;;;;23.13;21.20;;;21.50;99.90;;;;;;5036583;28;20530;-69
2023/08/12 09:10:40;;;;;;;25.23;23.17;;;21.50;99.90;;;;;;5035948;28;20453;-69
2023/08/12 09:13:09;;;;;;;25.80;23.53;;;21.50;99.90;;;;;;5036113;28;21045;-69
2023/08/12 09:15:37;;;;;;;25.47;23.40;;;21.50;99.90;;;;;;5037262;28;20870;-69
2023/08/12 09:18:07;;;;;;;27.30;24.90;;;21.50;99.90;;;;;;5037978;28;21016;-69
2023/08/12 09:20:35;;;;;;;26.90;24.80;;;21.50;99.90;;;;;;5036765;28;20443;-69
2023/08/12 09:23:04;;;;;;;27.20;24.90;;;21.50;99.90;;;;;;5037536;28;20505;-69
2023/08/12 09:25:35;;;;;;;28.70;26.27;;;21.50;99.90;;;;;;5037333;28;20777;-69
2023/08/12 09:28:03;;;;;;;31.37;28.47;;;21.50;99.90;;;;;;5037183;28;20422;-69
2023/08/12 09:30:32;;;;;;;32.10;29.40;;;21.50;99.90;;;;;;5036497;28;20439;-69
2023/08/12 09:33:02;;;;;;;33.40;30.70;;;21.50;99.90;;;;;;5036193;28;20463;-68
2023/08/12 09:35:37;;;;;;;32.43;29.50;;;21.50;99.90;;;;;;5034929;28;20451;-68
2023/08/12 09:38:07;;;;;;;33.57;30.67;;;21.50;99.90;;;;;;5035805;28;20466;-68
2023/08/12 09:40:37;;;;;;;32.33;29.73;;;21.50;99.90;;;;;;5036363;28;20489;-68
2023/08/12 09:43:05;;;;;;;34.13;31.00;;;21.50;99.90;;;;;;5036441;28;20668;-68
2023/08/12 09:45:35;;;;;;;34.17;31.17;;;21.50;99.90;;;;;;5036106;28;20442;-68
2023/08/12 09:48:05;;;;;;;34.10;31.27;;;21.50;99.90;;;;;;5035850;28;20443;-68
2023/08/12 09:50:34;;;;;;;34.80;31.87;;;21.50;99.90;;;;;;5034512;28;20451;-67
2023/08/12 09:53:04;;;;;;;38.00;34.77;;;21.50;99.90;;;;;;5034631;28;20462;-68
2023/08/12 09:55:36;;;;;;;35.57;32.67;;;21.50;99.90;;;;;;5035827;28;20446;-68
2023/08/12 09:58:07;;;;;;;37.93;34.83;;;21.50;99.90;;;;;;5036313;28;20840;-68
2023/08/12 10:00:36;;;;;;;34.70;31.70;;;21.50;99.90;;;;;;5035740;28;20426;-67
2023/08/12 10:03:06;;;;;;;38.20;34.93;;;21.50;99.90;;;;;;5036160;28;20554;-68
2023/08/12 10:05:35;;;;;;;42.10;38.50;;;21.50;99.90;;;;;;5035017;28;20443;-67
2023/08/12 10:08:05;;;;;;;40.73;37.33;;;21.50;99.90;;;;;;5036883;28;20502;-68
2023/08/12 10:10:35;;;;;;;37.50;34.30;;;21.50;99.90;;;;;;5036844;28;20426;-67
2023/08/12 10:13:07;;;;;;;36.57;33.57;;;21.50;99.90;;;;;;5035018;28;20581;-68
2023/08/12 10:15:35;;;;;;;36.07;32.87;;;21.50;99.90;;;;;;5035793;28;20473;-68
2023/08/12 10:18:06;;;;;;;35.47;32.40;;;21.40;99.90;;;;;;5035424;28;20475;-67
2023/08/12 10:20:39;;;;;;;31.93;29.23;;;21.40;99.90;;;;;;5035618;28;20415;-68
2023/08/12 10:23:11;;;;;;;35.17;32.37;;;21.50;99.90;;;;;;5035400;28;20463;-67
2023/08/12 10:25:43;;;;;;;36.07;32.67;;;21.50;99.90;;;;;;5034260;28;20427;-67
2023/08/12 10:28:12;;;;;;;37.90;34.63;;;21.50;99.90;;;;;;5035389;28;20419;-68
2023/08/12 10:30:42;;;;;;;34.97;32.03;;;21.50;99.90;;;;;;5035563;28;20438;-68
2023/08/12 10:33:11;;;;;;;39.63;36.30;;;21.50;99.90;;;;;;5034151;28;20505;-68
2023/08/12 10:35:44;;;;;;;38.40;35.17;;;21.40;99.90;;;;;;5035782;28;20446;-68
2023/08/12 10:38:15;;;;;;;35.17;32.20;;;21.50;99.90;;;;;;5034131;28;20477;-68
2023/08/12 10:40:43;;;;;;;39.13;35.93;;;21.50;99.90;;;;;;5034620;28;20530;-68
2023/08/12 10:43:13;;;;;;;37.60;34.10;;;21.50;99.90;;;;;;5034450;28;20455;-68
2023/08/12 10:45:47;;;;;;;37.67;34.23;;;21.50;99.90;;;;;;5034138;28;20482;-68
2023/08/12 10:48:20;;;;;;;38.00;34.87;;;21.50;99.90;;;;;;5034696;28;20438;-68
2023/08/12 10:50:50;;;;;;;40.20;36.70;;;21.50;99.90;;;;;;5034442;28;20477;-68
2023/08/12 10:53:25;;;;;;;38.53;35.10;;;21.50;99.90;;;;;;5034554;28;20502;-68
2023/08/12 10:55:57;;;;;;;39.37;35.97;;;21.50;99.90;;;;;;5034809;28;20415;-68
2023/08/12 10:58:29;;;;;;;37.77;34.53;;;21.50;99.90;;;;;;5034309;28;20488;-67
2023/08/12 11:00:58;;;;;;;37.20;34.10;;;21.50;99.90;;;;;;5034023;28;20419;-68
2023/08/12 11:03:27;;;;;;;39.30;36.00;;;21.50;99.90;;;;;;5033745;28;20534;-68
2023/08/12 11:05:56;;;;;;;37.37;34.27;;;21.50;99.90;;;;;;5034172;28;20442;-68
2023/08/12 11:08:29;;;;;;;38.77;35.40;;;21.50;99.90;;;;;;5032170;28;20443;-68
2023/08/12 11:10:58;;;;;;;37.20;34.07;;;21.50;99.90;;;;;;5033874;28;20996;-68
2023/08/12 11:13:29;;;;;;;37.40;34.40;;;21.60;99.90;;;;;;5033020;28;20896;-68
2023/08/12 11:16:08;;;;;;;38.83;35.53;;;21.60;99.90;;;;;;5033063;28;21011;-68
2023/08/12 11:18:37;;;;;;;40.17;36.63;;;21.60;99.90;;;;;;5034264;28;20459;-68
2023/08/12 11:21:06;;;;;;;36.97;33.87;;;21.60;99.90;;;;;;5034606;28;20457;-68
2023/08/12 11:23:36;;;;;;;38.63;35.30;;;21.60;99.90;;;;;;5034460;28;20561;-68
2023/08/12 11:26:04;;;;;;;39.73;36.27;;;21.60;99.90;;;;;;5034136;28;20431;-68
2023/08/12 11:28:32;;;;;;;41.40;37.67;;;21.60;99.90;;;;;;5034125;28;20469;-68
2023/08/12 11:31:01;;;;;;;37.90;34.57;;;21.60;99.90;;;;;;5033026;28;20446;-68
2023/08/12 11:33:31;;;;;;;34.53;31.73;;;21.50;99.90;;;;;;5034173;28;20490;-68
2023/08/12 11:36:00;;;;;;;35.83;33.03;;;21.60;99.90;;;;;;5034455;28;20462;-68
2023/08/12 11:38:28;;;;;;;35.10;32.00;;;21.60;99.90;;;;;;5032477;28;20477;-68
2023/08/12 11:40:57;;;;;;;33.00;30.23;;;21.60;99.90;;;;;;5034041;28;20438;-68
2023/08/12 11:43:27;;;;;;;33.87;31.07;;;21.70;99.90;;;;;;5034303;28;20465;-68
2023/08/12 11:45:56;;;;;;;36.97;33.87;;;21.70;99.90;;;;;;5034253;28;20463;-68
2023/08/12 11:48:25;;;;;;;34.33;31.60;;;21.80;99.90;;;;;;5033193;28;20482;-68
2023/08/12 11:50:53;;;;;;;34.23;31.43;;;21.90;99.90;;;;;;5034607;28;20457;-69
2023/08/12 11:53:22;;;;;;;31.10;28.70;;;22.00;99.90;;;;;;5032792;28;20470;-68
2023/08/12 11:55:50;;;;;;;32.13;29.33;;;22.10;99.90;;;;;;5034016;28;20534;-68
2023/08/12 11:58:20;;;;;;;30.90;28.30;;;22.20;99.90;;;;;;5034269;28;20475;-68
2023/08/12 12:00:49;;;;;;;30.40;27.80;;;22.20;99.90;;;;;;5033064;28;20451;-69
2023/08/12 12:03:17;;;;;;;28.97;26.67;;;22.20;99.90;;;;;;5034120;28;20490;-69
2023/08/12 12:05:47;;;;;;;22.97;21.27;;;22.30;99.90;;;;;;5034459;28;20442;-69
2023/08/12 12:08:15;;;;;;;24.43;22.50;;;22.20;99.90;;;;;;5034163;28;20431;-69
2023/08/12 12:10:43;;;;;;;24.43;22.30;;;22.30;99.90;;;;;;5034027;28;20438;-69
2023/08/12 12:13:12;;;;;;;23.17;21.37;;;22.30;99.90;;;;;;5033650;28;20865;-69
2023/08/12 12:15:44;;;;;;;20.13;18.73;;;22.30;99.90;;;;;;5034199;28;20537;-68
2023/08/12 12:18:13;;;;;;;22.13;20.30;;;22.30;99.90;;;;;;5033819;28;20960;-69
2023/08/12 12:20:56;;;;;;;20.40;18.80;;;22.30;99.90;;;;;;5035857;28;20446;-68
2023/08/12 12:23:28;;;;;;;18.03;16.63;;;22.30;99.90;;;;;;5037276;28;20462;-69
2023/08/12 12:26:01;;;;;;;16.27;15.03;;;22.30;99.90;;;;;;5038017;28;20498;-69
2023/08/12 12:28:30;;;;;;;19.63;18.10;;;22.30;99.90;;;;;;5037706;28;20420;-68
2023/08/12 12:30:59;;;;;;;15.83;14.73;;;22.40;99.90;;;;;;5037617;28;20435;-68
2023/08/12 12:33:28;;;;;;;15.63;14.43;;;22.40;99.90;;;;;;5037255;28;20475;-69
2023/08/12 12:35:56;;;;;;;16.93;15.73;;;22.50;99.90;;;;;;5036733;28;21063;-69
2023/08/12 12:38:28;;;;;;;16.70;15.50;;;22.50;99.90;;;;;;5036849;28;20516;-69